Hit Tracker is now ESPN Home Run Tracker! Hit Tracker founder Greg Rybarczyk is now collaborating with the ESPN Stats & Information Group to continue tracking all MLB home runs, and helping baseball fans know "How Far It Really Went!™" Please credit any information on this site to ESPN Stats & Information Group. For more information and analysis on home runs, please contact founder Greg Rybarczyk. E-Mail ESPN Home Run Tracker
Main Page | Ballparks | Park Overlays | Glossary | Highlight Homers | Feedback | Bio | 3 Types of HR's | AAA Home Run Derby Last Updated: August 22, 2014, 7:17 am PST
Welcome to the ESPN Home Run Tracker! Check out the ESPN MLB Scoreboard throughout the 2014 season! Contact us at grybar@hittrackeronline.com.
Season:
Ballpark detail for Turner Field
Ballpark # of Home Runs HR per game Avg.
True
Distance
Avg.
Speed
Off
Bat
Avg.
Std.
Dist.
Turner Field 109 1.68 406.5 104.4 403.2

Scatter Plot of Home Runs Turner Field
 Overlay Ballpark:
Without range rings   With range rings

2014 Season Home Runs for Turner Field
Click headers to sort
Date Video Path Hitter Hitter
Team
Pitcher Pitcher
Team
 ^
INN Ballpark Type/
Luck
True
Dist.
Speed
Off
Bat
Elev.
Angle
Horiz.
Angle
Apex Impact Due To: Std.
Dist.
#
Parks
Wind Temp. Alt.
04/11/14 Video View Pena, Ramiro ATL Roark, Tanner WSH 2 Turner Field PL 383 102.5 27.9 63.6 77 0 0 1 381 29
04/11/14 Video View Upton, Justin ATL Clippard, Tyler WSH 8 Turner Field JE 420 110.4 18.7 89.4 57 0 0 0 420 20
04/12/14 Video View Upton, B.J. ATL Jordan, Taylor WSH 1 Turner Field PL 416 100.7 30.5 94.6 104 7 1 3 406 15
04/12/14 Video View Freeman, Freddie ATL Stammen, Craig WSH 8 Turner Field JE/L 396 98.7 30.7 102.2 96 6 0 2 388 16
04/13/14 Video View Upton, Justin ATL Gonzalez, Gio WSH 1 Turner Field JE/L 412 99.3 37.3 91.1 133 32 1 4 376 0
04/13/14 Video View Freeman, Freddie ATL Gonzalez, Gio WSH 2 Turner Field ND 409 109.5 36.2 65.3 146 3 2 6 399 30
04/13/14 Video View Simmons, Andrelton ATL Detwiler, Ross WSH 8 Turner Field JE/L 410 99.4 28.4 89.3 88 7 1 2 401 0
08/08/14 Video View Upton, Justin ATL Strasburg, Stephen WSH 1 Turner Field PL 424 106.6 22.0 89.9 73 0 0 0 423 26
08/08/14 Video View Freeman, Freddie ATL Strasburg, Stephen WSH 2 Turner Field JE 375 103.2 24.8 65.8 63 0 0 1 373 23
08/08/14 Video View Upton, B.J. ATL Strasburg, Stephen WSH 2 Turner Field PL 401 109.6 22.3 109.0 61 0 0 0 400 30
08/08/14 Video View La Stella, Tommy ATL Strasburg, Stephen WSH 5 Turner Field JE 414 105.8 24.3 79.2 75 0 1 1 413 29
08/10/14 Video View Upton, Justin ATL Gonzalez, Gio WSH 4 Turner Field PL 390 111.6 22.2 120.7 55 1 1 1 388 30
05/05/14 Video View Pena, Ramiro ATL Siegrist, Kevin STL 7 Turner Field JE 399 100.9 27.1 101.5 83 1 1 1 396 20
05/06/14 Video View Upton, Justin ATL Lyons, Tyler STL 4 Turner Field ND 457 109.4 28.6 98.4 113 3 2 3 450 30
06/03/14 Video View Upton, B.J. ATL Ramirez, Erasmo SEA 2 Turner Field JE 422 113.5 17.3 91.4 52 0 0 0 423 20
06/03/14 Video View Gattis, Evan ATL Ramirez, Erasmo SEA 1 Turner Field JE 364 99.2 27.4 64.2 71 -1 1 1 363 25
07/28/14 Video View Gattis, Evan ATL Lane, Jason SD 7 Turner Field PL 386 106.0 25.0 117.3 67 -1 1 1 385 30
06/18/14 Video View Gattis, Evan ATL Hernandez, Roberto PHI 1 Turner Field PL 409 103.9 25.7 101.7 81 0 0 0 409 0
06/18/14 Video View Doumit, Ryan ATL Hernandez, Roberto PHI 4 Turner Field JE 407 102.2 30.1 77.3 105 0 0 0 407 0
07/18/14 Video View Heyward, Jason ATL Burnett, A.J. PHI 2 Turner Field JE 383 100.9 28.0 68.8 80 -1 0 1 382 28
07/20/14 Video View Johnson, Chris ATL Kendrick, Kyle PHI 2 Turner Field JE 416 103.0 25.3 93.4 83 0 0 1 415 19
08/15/14 Video View Gattis, Evan ATL Hammel, Jason OAK 2 Turner Field PL 436 106.3 25.7 96.6 88 2 3 2 431 30
08/15/14 Video View Upton, Justin ATL Hammel, Jason OAK 2 Turner Field JE 403 106.4 23.6 105.9 67 2 1 1 400 30
08/15/14 Video View Freeman, Freddie ATL Hammel, Jason OAK 3 Turner Field JE/L 409 100.0 31.0 93.4 108 3 2 3 402 6
08/15/14 Video View Gosselin, Phil ATL Chavez, Jesse OAK 6 Turner Field JE 409 100.2 29.9 94.1 103 2 2 2 404 9
08/17/14 Video View Upton, Justin ATL Lester, Jon OAK 4 Turner Field PL 423 111.0 23.7 108.3 71 1 1 1 421 30
08/17/14 Video View Johnson, Chris ATL Lester, Jon OAK 7 Turner Field ND 418 110.0 26.5 118.6 77 4 0 1 412 30
04/09/14 Video View Heyward, Jason ATL Wheeler, Zack NYM 1 Turner Field PL 414 107.2 23.3 78.8 75 -1 -1 1 414 29
04/10/14 Video View Upton, Justin ATL Mejia, Jenrry NYM 2 Turner Field PL 379 98.7 31.7 68.3 96 2 0 2 374 25
04/10/14 Video View Upton, Justin ATL Mejia, Jenrry NYM 3 Turner Field ND 477 116.5 28.6 109.0 114 7 0 4 467 30
05/19/14 Video View Freeman, Freddie ATL Peralta, Wily MIL 3 Turner Field JE 360 98.1 36.8 112.1 123 -1 0 4 357 14
05/19/14 Video View Doumit, Ryan ATL Wang, Wei-Chung MIL 8 Turner Field PL 394 104.8 26.4 112.8 76 -1 0 1 393 30
05/19/14 Video View Upton, Justin ATL Wang, Wei-Chung MIL 8 Turner Field JE 386 100.5 28.7 70.8 86 0 -1 2 385 29
05/20/14 Video View Simmons, Andrelton ATL Gallardo, Yovani MIL 3 Turner Field ND 407 105.0 33.0 115.6 112 4 2 3 398 30
05/20/14 Video View Upton, Justin ATL Thornburg, Tyler MIL 5 Turner Field JE 353 101.8 25.0 54.8 57 0 1 1 351 22
05/22/14 Video View Upton, B.J. ATL Garza, Matt MIL 6 Turner Field PL 371 98.4 29.7 66.0 83 0 1 2 368 26
04/21/14 Video View Simmons, Andrelton ATL Koehler, Tom MIA 5 Turner Field PL 400 105.2 25.7 109.3 75 0 1 1 399 30
04/21/14 Video View Gattis, Evan ATL Caminero, Arquimedes MIA 10 Turner Field JE 367 106.1 23.3 121.7 56 0 -1 0 367 24
07/22/14 Video View Upton, Justin ATL Turner, Jacob MIA 3 Turner Field PL 398 101.0 30.4 105.5 100 -1 2 3 395 30
07/23/14 Video View Freeman, Freddie ATL Eovaldi, Nathan MIA 2 Turner Field PL 396 99.7 33.0 105.1 111 5 3 3 385 22
07/24/14 Video View Johnson, Chris ATL Alvarez, Henderson MIA 2 Turner Field PL 396 101.1 28.5 105.4 89 0 1 2 394 30
08/12/14 Video View Upton, B.J. ATL Haren, Dan LAD 4 Turner Field ND 411 109.8 26.8 121.9 77 1 2 2 407 30
06/13/14 Video View Gattis, Evan ATL Wilson, C.J. LAA 1 Turner Field PL 408 109.8 22.6 107.5 64 0 0 1 407 30
06/13/14 Video View Johnson, Chris ATL Wilson, C.J. LAA 1 Turner Field PL 420 103.9 25.7 96.7 84 2 0 1 417 26
06/14/14 Video View Gattis, Evan ATL Smith, Joe LAA 8 Turner Field PL 434 105.8 25.6 86.4 90 0 1 2 432 28
06/15/14 Video View Heyward, Jason ATL Bedrosian, Cam LAA 7 Turner Field JE 414 102.2 26.6 85.9 89 0 0 1 413 19
05/25/14 Video View Johnson, Chris ATL Masset, Nick COL 8 Turner Field ND 436 110.1 26.0 105.2 94 -5 2 2 437 30
05/25/14 Video View Upton, Justin ATL Morales, Franklin COL 5 Turner Field PL 402 104.3 35.3 105.0 140 -3 4 5 396 30
05/25/14 Video View Gattis, Evan ATL Morales, Franklin COL 4 Turner Field PL 408 109.5 24.7 114.7 71 -1 1 1 407 30
05/25/14 Video View Gattis, Evan ATL Morales, Franklin COL 2 Turner Field JE 411 101.9 29.4 93.7 111 -8 1 2 414 20
04/25/14 Video View Upton, Justin ATL Bailey, Homer CIN 1 Turner Field PL 404 102.2 29.9 103.9 102 -3 0 2 403 30
04/26/14 Video View Freeman, Freddie ATL Leake, Mike CIN 1 Turner Field PL 416 102.1 31.4 83.1 116 2 1 3 410 20
04/26/14 Video View Upton, Justin ATL Leake, Mike CIN 3 Turner Field PL 440 106.0 28.1 85.3 106 1 1 2 436 29
04/26/14 Video View Gattis, Evan ATL Leake, Mike CIN 3 Turner Field PL 397 100.4 29.6 105.1 93 1 1 2 392 30
05/11/14 Video View Gattis, Evan ATL Jackson, Edwin CHC 4 Turner Field ND 437 108.6 27.2 103.7 98 -2 1 2 435 30
05/11/14 Video View Heyward, Jason ATL Russell, James CHC 7 Turner Field PL 413 105.3 25.7 76.9 84 -3 0 2 413 29
05/27/14 Video View Heyward, Jason ATL Lester, Jon BOS 1 Turner Field PL 428 103.6 29.9 83.8 108 3 2 3 421 28
06/03/14 Video View Romero, Stefen SEA Floyd, Gavin ATL 4 Turner Field JE 412 106.9 21.4 96.3 65 0 0 0 411 19
06/03/14 Video View Buck, John SEA Wood, Alex ATL 7 Turner Field PL 400 102.6 28.8 72.6 92 -2 1 2 399 30
05/26/14 Video View Ortiz, David BOS Santana, Ervin ATL 5 Turner Field JE 412 103.5 24.5 96.3 80 -1 1 1 411 25
05/24/14 Video View Tulowitzki, Troy COL Minor, Mike ATL 6 Turner Field PL 364 103.1 37.6 118.4 137 -14 4 5 368 30
05/24/14 Video View Cuddyer, Michael COL Minor, Mike ATL 2 Turner Field ND 433 111.2 24.5 107.1 80 0 1 2 430 30
04/11/14 Video View Zimmerman, Ryan WSH Teheran, Julio ATL 5 Turner Field PL 409 105.2 26.2 106.2 82 0 -1 1 408 30
04/12/14 Video View Rendon, Anthony WSH Wood, Alex ATL 1 Turner Field JE/L 413 100.8 28.4 85.0 92 4 1 2 406 13
04/13/14 Video View LaRoche, Adam WSH Schlosser, Gus ATL 9 Turner Field JE/L 409 99.0 30.0 94.7 95 9 1 2 397 5
04/21/14 Video View Jones, Garrett MIA Teheran, Julio ATL 2 Turner Field PL 414 105.3 27.0 73.9 87 0 0 2 412 30
05/02/14 Video View Pagan, Angel SF Minor, Mike ATL 1 Turner Field PL 391 101.0 31.7 108.1 106 -2 -1 3 390 30
05/02/14 Video View Morse, Michael SF Minor, Mike ATL 6 Turner Field PL 360 96.6 35.6 65.4 109 4 -1 4 354 23
05/03/14 Video View Belt, Brandon SF Teheran, Julio ATL 2 Turner Field PL 432 106.4 26.9 83.2 102 -5 0 2 434 30
05/03/14 Video View Posey, Buster SF Teheran, Julio ATL 4 Turner Field PL 403 101.6 29.0 101.6 99 -3 0 2 403 30
05/03/14 Video View Morse, Michael SF Teheran, Julio ATL 7 Turner Field PL 421 106.2 33.5 97.3 143 -5 0 4 422 30
05/04/14 Video View Crawford, Brandon SF Wood, Alex ATL 4 Turner Field PL 417 109.2 21.7 79.6 68 0 0 0 416 29
05/04/14 Video View Crawford, Brandon SF Walden, Jordan ATL 8 Turner Field PL 382 100.5 31.1 65.0 93 -1 2 2 379 29
05/07/14 Video View Bourjos, Peter STL Minor, Mike ATL 2 Turner Field PL 420 105.5 24.7 99.1 79 0 0 1 418 29
05/09/14 Video View Olt, Mike CHC Teheran, Julio ATL 3 Turner Field PL 412 101.8 30.7 97.1 111 0 -1 3 410 29
05/19/14 Video View Davis, Khris MIL Minor, Mike ATL 5 Turner Field PL 435 106.9 30.3 97.2 124 -4 -1 3 436 30
05/19/14 Video View Braun, Ryan MIL Carpenter, David ATL 8 Turner Field JE 345 96.3 29.3 58.5 73 -2 -1 1 346 21
05/21/14 Video View Reynolds, Mark MIL Santana, Ervin ATL 1 Turner Field PL 377 104.0 26.8 124.9 69 1 1 2 373 30
05/21/14 Video View Gomez, Carlos MIL Santana, Ervin ATL 4 Turner Field JE 413 101.1 30.3 83.3 105 2 1 3 407 20
05/23/14 Video View Cuddyer, Michael COL Floyd, Gavin ATL 6 Turner Field PL 394 100.6 31.5 108.6 101 2 2 2 388 30
06/14/14 Video View Pujols, Albert LAA Floyd, Gavin ATL 6 Turner Field PL 411 101.9 28.1 98.1 95 -1 1 2 409 28
06/14/14 Video View Trout, Mike LAA Floyd, Gavin ATL 6 Turner Field PL 421 104.0 29.8 100.7 108 -2 2 3 418 30
06/15/14 Video View Aybar, Erick LAA Minor, Mike ATL 2 Turner Field ND 409 108.2 26.9 117.3 79 0 0 2 407 30
06/15/14 Video View Trout, Mike LAA Minor, Mike ATL 3 Turner Field ND 424 114.5 25.4 125.3 73 1 1 2 420 30
06/16/14 Video View Howard, Ryan PHI Teheran, Julio ATL 2 Turner Field JE 412 102.2 25.4 92.9 82 0 1 1 410 17
06/17/14 Video View Howard, Ryan PHI Santana, Ervin ATL 1 Turner Field PL 388 102.5 27.7 112.0 81 -3 2 1 388 30
06/18/14 Video View Byrd, Marlon PHI Hale, David ATL 8 Turner Field ND 435 111.8 28.7 119.9 92 3 3 3 427 30
06/30/14 Video View Granderson, Curtis NYM Wood, Alex ATL 1 Turner Field JE 415 102.2 29.1 82.9 103 -1 1 2 413 24
07/01/14 Video View Granderson, Curtis NYM Minor, Mike ATL 3 Turner Field PL 418 106.8 24.3 77.7 74 0 1 1 416 29
07/01/14 Video View Murphy, Daniel NYM Minor, Mike ATL 5 Turner Field PL 420 104.0 29.0 78.1 101 0 2 3 416 29
07/05/14 Video View Inciarte, Ender ARI Harang, Aaron ATL 5 Turner Field PL 386 104.2 25.9 65.1 70 0 1 1 384 29
07/06/14 Video View Goldschmidt, Paul ARI Wood, Alex ATL 3 Turner Field ND 392 104.7 29.0 124.5 79 3 1 2 386 30
07/19/14 Video View Rollins, Jimmy PHI Simmons, Shae ATL 7 Turner Field PL 368 98.7 29.5 65.1 83 -3 0 2 368 26
07/20/14 Video View Mayberry Jr., John PHI Wood, Alex ATL 2 Turner Field JE 349 95.5 36.3 117.8 108 0 1 3 345 13
07/20/14 Video View Byrd, Marlon PHI Carpenter, David ATL 9 Turner Field PL 417 103.3 31.2 99.8 116 0 1 3 413 30
07/21/14 Video View Saltalamacchia, Jarrod MIA Teheran, Julio ATL 5 Turner Field PL 414 105.9 27.0 71.8 85 0 1 2 411 30
07/27/14 Video View Solarte, Yangervis SD Minor, Mike ATL 3 Turner Field PL 390 100.5 34.0 120.1 101 12 4 3 372 30
07/27/14 Video View Rivera, Rene SD Minor, Mike ATL 6 Turner Field PL 430 109.1 22.9 99.4 69 1 1 1 428 30
08/08/14 Video View Rendon, Anthony WSH Santana, Ervin ATL 6 Turner Field JE 409 100.3 29.9 96.7 101 4 0 2 402 14
08/08/14 Video View Ramos, Wilson WSH Varvaro, Anthony ATL 7 Turner Field ND 416 108.4 33.8 116.2 126 3 0 4 409 30
08/09/14 Video View LaRoche, Adam WSH Harang, Aaron ATL 6 Turner Field PL 422 104.1 27.5 81.8 96 -1 0 2 420 29
08/10/14 Video View Desmond, Ian WSH Wood, Alex ATL 4 Turner Field PL 420 109.8 22.5 77.2 68 0 1 1 419 29
08/14/14 Video View Butera, Drew LAD Harang, Aaron ATL 2 Turner Field PL 398 102.1 27.8 104.3 91 -4 1 2 399 30
08/15/14 Video View Freiman, Nate OAK Wood, Alex ATL 4 Turner Field ND 423 106.8 28.9 109.4 97 1 2 2 418 30
08/16/14 Video View Vogt, Stephen OAK Teheran, Julio ATL 6 Turner Field JE/L 410 100.9 32.7 85.6 120 1 3 3 403 12
08/16/14 Video View Jaso, John OAK Walden, Jordan ATL 8 Turner Field JE 409 100.6 27.5 92.7 91 0 1 2 406 6
08/17/14 Video View Freiman, Nate OAK Minor, Mike ATL 2 Turner Field ND 459 111.3 23.0 92.3 84 0 1 1 457 30
08/17/14 Video View Freiman, Nate OAK Minor, Mike ATL 7 Turner Field PL 414 115.6 21.0 111.6 56 1 0 1 413 30
07/05/14 Video View Upton, Justin ATL Stites, Matt ARI 6 Turner Field PL 398 102.0 28.8 72.2 90 -1 2 2 395 30


About HitTracker | Contact Us
© 2006-2009 HitTrackerOnline